Time;durP1;ratioP1;P1;durP2;ratioP2;P2;SDS_P1;SDS_P2;PMS_P1;PMS_P2;Temp;Humidity;BMP_temperature;BMP_pressure;BME280_temperature;BME280_humidity;BME280_pressure;Samples;Min_cycle;Max_cycle;Signal;HPM_P1;HPM_P2
2024/04/20 00:02:04;;;;;;;;;;;;;;;;;;5482161;26;19935;-63
2024/04/20 00:04:30;;;;;;;;;;;;;;;;;;5479289;26;19928;-62
2024/04/20 00:06:56;;;;;;;;;;;;;;;;;;5437156;26;19932;-63
2024/04/20 00:09:22;;;;;;;;;;;;;;;;;;5480874;26;20440;-63
2024/04/20 00:11:48;;;;;;;;;;;;;;;;;;5469894;26;19943;-65
2024/04/20 00:14:14;;;;;;;;;;;;;;;;;;5472893;26;19941;-64
2024/04/20 00:16:40;;;;;;;;;;;;;;;;;;5462409;26;19928;-64
2024/04/20 00:19:05;;;;;;;;;;;;;;;;;;5465713;26;19960;-65
2024/04/20 00:21:31;;;;;;;;;;;;;;;;;;5464918;26;19936;-64
2024/04/20 00:23:57;;;;;;;;;;;;;;;;;;5481552;26;19928;-63
2024/04/20 00:26:23;;;;;;;;;;;;;;;;;;5448067;26;19944;-64
2024/04/20 00:28:49;;;;;;;;;;;;;;;;;;5479501;26;20278;-62
2024/04/20 00:31:15;;;;;;;;;;;;;;;;;;5480231;26;19935;-65
2024/04/20 00:33:41;;;;;;;;;;;;;;;;;;5485775;26;19940;-63
2024/04/20 00:36:07;;;;;;;;;;;;;;;;;;5485297;26;19927;-64
2024/04/20 00:38:33;;;;;;;;;;;;;;;;;;5477317;26;19936;-64
2024/04/20 00:40:59;;;;;;;;;;;;;;;;;;5477164;26;19928;-65
2024/04/20 00:43:25;;;;;;;;;;;;;;;;;;5475178;26;20336;-62
2024/04/20 00:45:51;;;;;;;;;;;;;;;;;;5479792;26;19935;-65
2024/04/20 00:48:17;;;;;;;;;;;;;;;;;;5478448;26;19947;-63
2024/04/20 00:50:43;;;;;;;;;;;;;;;;;;5475676;26;19996;-65
2024/04/20 00:53:09;;;;;;;;;;;;;;;;;;5476571;26;19944;-65
2024/04/20 00:55:35;;;;;;;;;;;;;;;;;;5478287;26;19928;-64
2024/04/20 00:58:02;;;;;;;;;;;;;;;;;;5480996;26;19997;-64
2024/04/20 01:00:27;;;;;;;;;;;;;;;;;;5476474;26;19944;-65
2024/04/20 01:02:53;;;;;;;;;;;;;;;;;;5478906;26;20000;-65
2024/04/20 01:05:19;;;;;;;;;;;;;;;;;;5476497;26;19928;-65
2024/04/20 01:07:45;;;;;;;;;;;;;;;;;;5477873;26;20277;-65
2024/04/20 01:10:11;;;;;;;;;;;;;;;;;;5479971;26;19932;-65
2024/04/20 01:12:38;;;;;;;;;;;;;;;;;;5479489;26;19928;-65
2024/04/20 01:15:04;;;;;;;;;;;;;;;;;;5476701;26;20017;-65
2024/04/20 01:17:30;;;;;;;;;;;;;;;;;;5482149;26;19940;-64
2024/04/20 01:19:56;;;;;;;;;;;;;;;;;;5477988;26;19938;-65
2024/04/20 01:22:22;;;;;;;;;;;;;;;;;;5470447;26;19928;-65
2024/04/20 01:24:48;;;;;;;;;;;;;;;;;;5480897;26;20374;-64
2024/04/20 01:27:14;;;;;;;;;;;;;;;;;;5480679;26;19993;-65
2024/04/20 01:29:40;;;;;;;;;;;;;;;;;;5472371;26;20285;-65
2024/04/20 01:32:05;;;;;;;;;;;;;;;;;;5474117;26;19934;-65
2024/04/20 01:34:31;;;;;;;;;;;;;;;;;;5482152;26;19927;-65
2024/04/20 01:36:57;;;;;;;;;;;;;;;;;;5479127;26;19974;-63
2024/04/20 01:39:23;;;;;;;;;;;;;;;;;;5483636;26;19938;-66
2024/04/20 01:41:49;;;;;;;;;;;;;;;;;;5441073;26;19935;-65
2024/04/20 01:44:15;;;;;;;;;;;;;;;;;;5473926;26;21039;-65
2024/04/20 01:46:41;;;;;;;;;;;;;;;;;;5475082;26;19936;-65
2024/04/20 01:49:07;;;;;;;;;;;;;;;;;;5481930;26;19937;-64
2024/04/20 01:51:33;;;;;;;;;;;;;;;;;;5447894;26;20004;-65
2024/04/20 01:53:59;;;;;;;;;;;;;;;;;;5466430;26;19928;-65
2024/04/20 01:56:25;;;;;;;;;;;;;;;;;;5474132;26;19928;-63
2024/04/20 01:58:51;;;;;;;;;;;;;;;;;;5472222;26;19928;-63
2024/04/20 02:01:17;;;;;;;;;;;;;;;;;;5471534;26;19938;-65
2024/04/20 02:03:43;;;;;;;;;;;;;;;;;;5485826;26;19993;-64
2024/04/20 02:06:09;;;;;;;;;;;;;;;;;;5481132;26;19932;-64
2024/04/20 02:08:35;;;;;;;;;;;;;;;;;;5478851;26;19928;-64
2024/04/20 02:11:00;;;;;;;;;;;;;;;;;;5464019;26;19936;-64
2024/04/20 02:13:26;;;;;;;;;;;;;;;;;;5476098;26;20380;-65
2024/04/20 02:15:54;;;;;;;;;;;;;;;;;;5477718;26;19960;-65
2024/04/20 02:18:20;;;;;;;;;;;;;;;;;;5480706;26;19928;-65
2024/04/20 02:20:46;;;;;;;;;;;;;;;;;;5474754;26;20262;-65
2024/04/20 02:23:12;;;;;;;;;;;;;;;;;;5475619;26;20290;-64
2024/04/20 02:25:38;;;;;;;;;;;;;;;;;;5474425;26;19940;-65
2024/04/20 02:28:04;;;;;;;;;;;;;;;;;;5471087;26;19932;-65
2024/04/20 02:30:30;;;;;;;;;;;;;;;;;;5469193;26;19928;-64
2024/04/20 02:32:55;;;;;;;;;;;;;;;;;;5479919;26;19932;-64
2024/04/20 02:35:21;;;;;;;;;;;;;;;;;;5478232;26;19935;-65
2024/04/20 02:37:47;;;;;;;;;;;;;;;;;;5481603;26;20381;-65
2024/04/20 02:40:14;;;;;;;;;;;;;;;;;;5472632;26;20062;-64
2024/04/20 02:42:40;;;;;;;;;;;;;;;;;;5464436;26;19929;-63
2024/04/20 02:45:05;;;;;;;;;;;;;;;;;;5461769;26;20025;-64
2024/04/20 02:47:31;;;;;;;;;;;;;;;;;;5472859;26;19936;-65
2024/04/20 02:49:57;;;;;;;;;;;;;;;;;;5475326;26;19927;-65
2024/04/20 02:52:23;;;;;;;;;;;;;;;;;;5465031;26;19939;-65
2024/04/20 02:54:49;;;;;;;;;;;;;;;;;;5473283;26;19936;-62
2024/04/20 02:57:15;;;;;;;;;;;;;;;;;;5480392;26;19996;-64
2024/04/20 02:59:41;;;;;;;;;;;;;;;;;;5469165;26;19936;-65
2024/04/20 03:02:07;;;;;;;;;;;;;;;;;;5464570;26;19936;-62
2024/04/20 03:04:33;;;;;;;;;;;;;;;;;;5473074;26;19929;-65
2024/04/20 03:06:59;;;;;;;;;;;;;;;;;;5478635;26;19996;-64
2024/04/20 03:09:24;;;;;;;;;;;;;;;;;;5476097;26;19934;-63
2024/04/20 03:11:50;;;;;;;;;;;;;;;;;;5476791;26;20340;-64
2024/04/20 03:14:16;;;;;;;;;;;;;;;;;;5467634;26;20051;-65
2024/04/20 03:16:42;;;;;;;;;;;;;;;;;;5480469;26;19935;-65
2024/04/20 03:19:09;;;;;;;;;;;;;;;;;;5463598;26;19997;-64
2024/04/20 03:21:35;;;;;;;;;;;;;;;;;;5475662;26;20388;-64
2024/04/20 03:24:00;;;;;;;;;;;;;;;;;;5485671;26;20381;-63
2024/04/20 03:26:26;;;;;;;;;;;;;;;;;;5473407;26;21111;-62
2024/04/20 03:28:52;;;;;;;;;;;;;;;;;;5483476;26;19993;-62
2024/04/20 03:31:18;;;;;;;;;;;;;;;;;;5468690;26;19928;-65
2024/04/20 03:33:44;;;;;;;;;;;;;;;;;;5485218;26;20266;-64
2024/04/20 03:36:10;;;;;;;;;;;;;;;;;;5473779;26;19931;-65
2024/04/20 03:38:36;;;;;;;;;;;;;;;;;;5469944;26;19997;-65
2024/04/20 03:41:03;;;;;;;;;;;;;;;;;;5484739;26;20269;-65
2024/04/20 03:43:29;;;;;;;;;;;;;;;;;;5468817;26;19929;-65
2024/04/20 03:45:55;;;;;;;;;;;;;;;;;;5463197;26;19935;-65
2024/04/20 03:48:21;;;;;;;;;;;;;;;;;;5444396;26;19992;-65
2024/04/20 03:50:47;;;;;;;;;;;;;;;;;;5471528;26;20358;-64
2024/04/20 03:53:13;;;;;;;;;;;;;;;;;;5440897;26;19943;-64
2024/04/20 03:55:39;;;;;;;;;;;;;;;;;;5472114;26;20378;-64
2024/04/20 03:58:05;;;;;;;;;;;;;;;;;;5487859;26;19928;-64
2024/04/20 04:00:31;;;;;;;;;;;;;;;;;;5474779;26;20265;-64
2024/04/20 04:02:57;;;;;;;;;;;;;;;;;;5476962;26;20029;-65
2024/04/20 04:05:23;;;;;;;;;;;;;;;;;;5465284;26;19940;-64
2024/04/20 04:07:49;;;;;;;;;;;;;;;;;;5480163;26;20374;-65
2024/04/20 04:10:15;;;;;;;;;;;;;;;;;;5475876;26;19928;-64
2024/04/20 04:12:40;;;;;;;;;;;;;;;;;;5435644;26;19936;-64
2024/04/20 04:15:06;;;;;;;;;;;;;;;;;;5475721;26;19996;-64
2024/04/20 04:17:32;;;;;;;;;;;;;;;;;;5471214;26;19939;-64
2024/04/20 04:19:58;;;;;;;;;;;;;;;;;;5483401;26;19928;-64
2024/04/20 04:22:24;;;;;;;;;;;;;;;;;;5482524;26;20262;-65
2024/04/20 04:24:50;;;;;;;;;;;;;;;;;;5479392;26;19928;-64
2024/04/20 04:27:17;;;;;;;;;;;;;;;;;;5472790;26;19936;-65
2024/04/20 04:29:42;;;;;;;;;;;;;;;;;;5479431;26;20684;-64
2024/04/20 04:32:09;;;;;;;;;;;;;;;;;;5465524;26;19943;-64
2024/04/20 04:34:35;;;;;;;;;;;;;;;;;;5470268;26;19927;-62
2024/04/20 04:37:01;;;;;;;;;;;;;;;;;;5466834;26;19934;-64
2024/04/20 04:39:27;;;;;;;;;;;;;;;;;;5477048;26;20003;-64
2024/04/20 04:41:53;;;;;;;;;;;;;;;;;;5471864;26;19935;-65
2024/04/20 04:44:18;;;;;;;;;;;;;;;;;;5479336;26;19928;-64
2024/04/20 04:46:44;;;;;;;;;;;;;;;;;;5471404;26;19929;-63
2024/04/20 04:49:10;;;;;;;;;;;;;;;;;;5464621;26;19954;-64
2024/04/20 04:51:36;;;;;;;;;;;;;;;;;;5476856;26;19934;-64
2024/04/20 04:54:02;;;;;;;;;;;;;;;;;;5462970;26;19935;-65
2024/04/20 04:56:28;;;;;;;;;;;;;;;;;;5473213;26;19946;-64
2024/04/20 04:58:58;;;;;;;;;;;;;;;;;;5483230;26;19928;-64
2024/04/20 05:01:24;;;;;;;;;;;;;;;;;;5448406;26;19943;-64
2024/04/20 05:03:50;;;;;;;;;;;;;;;;;;5475835;26;19955;-64
2024/04/20 05:06:15;;;;;;;;;;;;;;;;;;5473972;26;19928;-64
2024/04/20 05:08:41;;;;;;;;;;;;;;;;;;5494686;26;19935;-64
2024/04/20 05:11:07;;;;;;;;;;;;;;;;;;5475508;26;19968;-63
2024/04/20 05:13:33;;;;;;;;;;;;;;;;;;5478659;26;19935;-65
2024/04/20 05:15:59;;;;;;;;;;;;;;;;;;5464679;26;20302;-64
2024/04/20 05:18:26;;;;;;;;;;;;;;;;;;5471558;26;19928;-64
2024/04/20 05:20:52;;;;;;;;;;;;;;;;;;5468586;26;19952;-63
2024/04/20 05:23:18;;;;;;;;;;;;;;;;;;5465093;26;19928;-64
2024/04/20 05:25:44;;;;;;;;;;;;;;;;;;5463621;26;19940;-65
2024/04/20 05:28:10;;;;;;;;;;;;;;;;;;5444827;26;20278;-64
2024/04/20 05:30:36;;;;;;;;;;;;;;;;;;5476981;26;19954;-64
2024/04/20 05:33:01;;;;;;;;;;;;;;;;;;5436440;26;19928;-64
2024/04/20 05:35:28;;;;;;;;;;;;;;;;;;5473421;26;20694;-63
2024/04/20 05:37:54;;;;;;;;;;;;;;;;;;5472632;26;19977;-62
2024/04/20 05:40:19;;;;;;;;;;;;;;;;;;5462136;26;19936;-64
2024/04/20 05:42:45;;;;;;;;;;;;;;;;;;5473530;26;19927;-63
2024/04/20 05:45:11;;;;;;;;;;;;;;;;;;5479376;26;19980;-62
2024/04/20 05:47:37;;;;;;;;;;;;;;;;;;5464190;26;20266;-64
2024/04/20 05:50:03;;;;;;;;;;;;;;;;;;5473286;26;19940;-61
2024/04/20 05:52:29;;;;;;;;;;;;;;;;;;5466649;26;19940;-61
2024/04/20 05:54:55;;;;;;;;;;;;;;;;;;5470318;26;19944;-63
2024/04/20 05:57:21;;;;;;;;;;;;;;;;;;5472030;26;20069;-62
2024/04/20 05:59:46;;;;;;;;;;;;;;;;;;5472500;26;19928;-62
2024/04/20 06:02:12;;;;;;;;;;;;;;;;;;5474641;26;19928;-62
2024/04/20 06:04:40;;;;;;;;;;;;;;;;;;5472002;26;19928;-60
2024/04/20 06:07:06;;;;;;;;;;;;;;;;;;5471635;26;20374;-62
2024/04/20 06:09:32;;;;;;;;;;;;;;;;;;5466389;26;19935;-60
2024/04/20 06:11:58;;;;;;;;;;;;;;;;;;5463693;26;20363;-62
2024/04/20 06:14:23;;;;;;;;;;;;;;;;;;5477546;26;19935;-61
2024/04/20 06:16:49;;;;;;;;;;;;;;;;;;5471113;26;19940;-60
2024/04/20 06:19:15;;;;;;;;;;;;;;;;;;5483959;26;20199;-56
2024/04/20 06:21:41;;;;;;;;;;;;;;;;;;5465454;26;20012;-62
2024/04/20 06:24:07;;;;;;;;;;;;;;;;;;5463155;26;19935;-62
2024/04/20 06:26:33;;;;;;;;;;;;;;;;;;5480447;26;20373;-62
2024/04/20 06:28:59;;;;;;;;;;;;;;;;;;5480844;26;19935;-62
2024/04/20 06:31:25;;;;;;;;;;;;;;;;;;5472121;26;19928;-62
2024/04/20 06:33:50;;;;;;;;;;;;;;;;;;5472646;26;19929;-62
2024/04/20 06:36:17;;;;;;;;;;;;;;;;;;5477359;26;19928;-63
2024/04/20 06:38:43;;;;;;;;;;;;;;;;;;5462395;26;19950;-63
2024/04/20 06:41:09;;;;;;;;;;;;;;;;;;5470102;26;20317;-62
2024/04/20 06:43:35;;;;;;;;;;;;;;;;;;5471801;26;20718;-62
2024/04/20 06:46:01;;;;;;;;;;;;;;;;;;5461041;26;19934;-62
2024/04/20 06:48:27;;;;;;;;;;;;;;;;;;5464767;26;19935;-62
2024/04/20 06:50:53;;;;;;;;;;;;;;;;;;5470259;26;19928;-62
2024/04/20 06:53:19;;;;;;;;;;;;;;;;;;5460981;26;19935;-61
2024/04/20 06:55:44;;;;;;;;;;;;;;;;;;5471457;26;19935;-62
2024/04/20 06:58:10;;;;;;;;;;;;;;;;;;5470714;26;19939;-62
2024/04/20 07:00:36;;;;;;;;;;;;;;;;;;5478523;26;19943;-62
2024/04/20 07:03:03;;;;;;;;;;;;;;;;;;5464078;26;19940;-63
2024/04/20 07:05:28;;;;;;;;;;;;;;;;;;5478800;26;19954;-64
2024/04/20 07:07:54;;;;;;;;;;;;;;;;;;5475026;26;19928;-61
2024/04/20 07:10:20;;;;;;;;;;;;;;;;;;5474729;26;19934;-62
2024/04/20 07:12:46;;;;;;;;;;;;;;;;;;5464957;26;19928;-61
2024/04/20 07:15:12;;;;;;;;;;;;;;;;;;5473834;26;20290;-60
2024/04/20 07:17:38;;;;;;;;;;;;;;;;;;5473449;26;20048;-60
2024/04/20 07:20:03;;;;;;;;;;;;;;;;;;5480396;26;19935;-62
2024/04/20 07:22:29;;;;;;;;;;;;;;;;;;5476048;26;20369;-63
2024/04/20 07:24:55;;;;;;;;;;;;;;;;;;5479939;26;19939;-65
2024/04/20 07:27:21;;;;;;;;;;;;;;;;;;5476876;26;19928;-62
2024/04/20 07:29:47;;;;;;;;;;;;;;;;;;5476254;26;19936;-62
2024/04/20 07:32:13;;;;;;;;;;;;;;;;;;5476467;26;19935;-62
2024/04/20 07:34:39;;;;;;;;;;;;;;;;;;5470754;26;19947;-60
2024/04/20 07:37:05;;;;;;;;;;;;;;;;;;5468506;26;19935;-61
2024/04/20 07:39:31;;;;;;;;;;;;;;;;;;5437226;26;19996;-62
2024/04/20 07:41:57;;;;;;;;;;;;;;;;;;5466903;26;19939;-60
2024/04/20 07:44:22;;;;;;;;;;;;;;;;;;5463835;26;19940;-61
2024/04/20 07:46:48;;;;;;;;;;;;;;;;;;5468740;26;19932;-62
2024/04/20 07:49:14;;;;;;;;;;;;;;;;;;5461018;26;20470;-62
2024/04/20 07:51:40;;;;;;;;;;;;;;;;;;5466990;26;19974;-61
2024/04/20 07:54:06;;;;;;;;;;;;;;;;;;5466703;26;19943;-62
2024/04/20 07:56:32;;;;;;;;;;;;;;;;;;5460369;26;19928;-59
2024/04/20 07:58:58;;;;;;;;;;;;;;;;;;5466869;26;19943;-62
2024/04/20 08:01:23;;;;;;;;;;;;;;;;;;5462276;26;19981;-62
2024/04/20 08:03:49;;;;;;;;;;;;;;;;;;5465769;26;20072;-62
2024/04/20 08:06:15;;;;;;;;;;;;;;;;;;5465517;26;19928;-61
2024/04/20 08:08:41;;;;;;;;;;;;;;;;;;5464722;26;19951;-62
2024/04/20 08:11:07;;;;;;;;;;;;;;;;;;5468500;26;19952;-62
2024/04/20 08:13:35;;;;;;;;;;;;;;;;;;5467719;26;19950;-62
2024/04/20 08:16:01;;;;;;;;;;;;;;;;;;5472502;26;19996;-62
2024/04/20 08:18:27;;;;;;;;;;;;;;;;;;5470340;26;19928;-62
2024/04/20 08:20:53;;;;;;;;;;;;;;;;;;5477347;26;20390;-61
2024/04/20 08:23:18;;;;;;;;;;;;;;;;;;5467878;26;19932;-61
2024/04/20 08:25:44;;;;;;;;;;;;;;;;;;5473176;26;20320;-60
2024/04/20 08:28:10;;;;;;;;;;;;;;;;;;5463646;26;19937;-62
2024/04/20 08:30:36;;;;;;;;;;;;;;;;;;5463952;26;19942;-62
2024/04/20 08:33:02;;;;;;;;;;;;;;;;;;5472545;26;19978;-61
2024/04/20 08:35:28;;;;;;;;;;;;;;;;;;5474577;26;19928;-62
2024/04/20 08:37:53;;;;;;;;;;;;;;;;;;5487076;26;19934;-62
2024/04/20 08:40:19;;;;;;;;;;;;;;;;;;5476267;26;20377;-62
2024/04/20 08:42:45;;;;;;;;;;;;;;;;;;5467302;26;19946;-62
2024/04/20 08:45:14;;;;;;;;;;;;;;;;;;5451643;26;19943;-62
2024/04/20 08:47:40;;;;;;;;;;;;;;;;;;5464309;26;20484;-62
2024/04/20 08:50:06;;;;;;;;;;;;;;;;;;5469747;26;19996;-62
2024/04/20 08:52:32;;;;;;;;;;;;;;;;;;5473649;26;19938;-61
2024/04/20 08:54:58;;;;;;;;;;;;;;;;;;5479152;26;20374;-62
2024/04/20 08:57:24;;;;;;;;;;;;;;;;;;5468507;26;19928;-62
2024/04/20 08:59:50;;;;;;;;;;;;;;;;;;5471581;26;19940;-62
2024/04/20 09:02:16;;;;;;;;;;;;;;;;;;5475347;26;19935;-61
2024/04/20 09:04:42;;;;;;;;;;;;;;;;;;5482720;26;19928;-62
2024/04/20 09:07:08;;;;;;;;;;;;;;;;;;5480001;26;19996;-60
2024/04/20 09:09:34;;;;;;;;;;;;;;;;;;5475823;26;20338;-60
2024/04/20 09:12:00;;;;;;;;;;;;;;;;;;5476223;26;19935;-61
2024/04/20 09:14:26;;;;;;;;;;;;;;;;;;5483753;26;19932;-61
2024/04/20 09:16:51;;;;;;;;;;;;;;;;;;5475413;26;19934;-60
2024/04/20 09:19:17;;;;;;;;;;;;;;;;;;5486940;26;19932;-61
2024/04/20 09:21:43;;;;;;;;;;;;;;;;;;5481030;26;19940;-60
2024/04/20 09:24:09;;;;;;;;;;;;;;;;;;5475108;26;20004;-62
2024/04/20 09:26:35;;;;;;;;;;;;;;;;;;5484181;26;19966;-63
2024/04/20 09:29:01;;;;;;;;;;;;;;;;;;5483244;26;20370;-61
2024/04/20 09:31:27;;;;;;;;;;;;;;;;;;5476303;26;19927;-62
2024/04/20 09:33:53;;;;;;;;;;;;;;;;;;5469790;26;19943;-62
2024/04/20 09:36:18;;;;;;;;;;;;;;;;;;5473391;26;20277;-61
2024/04/20 09:38:44;;;;;;;;;;;;;;;;;;5480479;26;19939;-62
2024/04/20 09:41:10;;;;;;;;;;;;;;;;;;5479712;26;19940;-62
2024/04/20 09:43:36;;;;;;;;;;;;;;;;;;5475674;26;20034;-61
2024/04/20 09:46:02;;;;;;;;;;;;;;;;;;5479595;26;19928;-62
2024/04/20 09:48:28;;;;;;;;;;;;;;;;;;5471119;26;20362;-62
2024/04/20 09:50:54;;;;;;;;;;;;;;;;;;5475944;26;19928;-63
2024/04/20 09:53:19;;;;;;;;;;;;;;;;;;5479293;26;20436;-63
2024/04/20 09:55:45;;;;;;;;;;;;;;;;;;5477005;26;19927;-63
2024/04/20 09:58:12;;;;;;;;;;;;;;;;;;5476718;26;19935;-63
2024/04/20 10:00:38;;;;;;;;;;;;;;;;;;5474827;26;19929;-62
2024/04/20 10:03:04;;;;;;;;;;;;;;;;;;5463203;26;20369;-61
2024/04/20 10:05:31;;;;;;;;;;;;;;;;;;5474211;26;19996;-63
2024/04/20 10:07:57;;;;;;;;;;;;;;;;;;5478723;26;19938;-62
2024/04/20 10:10:25;;;;;;;;;;;;;;;;;;5464898;26;19932;-61
2024/04/20 10:12:51;;;;;;;;;;;;;;;;;;5479672;26;19940;-61
2024/04/20 10:15:17;;;;;;;;;;;;;;;;;;5477375;26;20029;-62
2024/04/20 10:17:42;;;;;;;;;;;;;;;;;;5474628;26;20394;-63
2024/04/20 10:20:08;;;;;;;;;;;;;;;;;;5472024;26;19932;-62
2024/04/20 10:22:34;;;;;;;;;;;;;;;;;;5467918;26;19928;-61
2024/04/20 10:25:02;;;;;;;;;;;;;;;;;;5465710;26;19940;-61
2024/04/20 10:27:28;;;;;;;;;;;;;;;;;;5465845;26;20319;-61
2024/04/20 10:29:54;;;;;;;;;;;;;;;;;;5474885;26;19977;-62
2024/04/20 10:32:20;;;;;;;;;;;;;;;;;;5472845;26;19939;-62
2024/04/20 10:34:46;;;;;;;;;;;;;;;;;;5464924;26;19928;-61
2024/04/20 10:37:11;;;;;;;;;;;;;;;;;;5477508;26;19932;-62
2024/04/20 10:39:38;;;;;;;;;;;;;;;;;;5480299;26;19936;-62
2024/04/20 10:42:04;;;;;;;;;;;;;;;;;;5488375;26;19928;-62
2024/04/20 10:44:29;;;;;;;;;;;;;;;;;;5474641;26;19943;-61
2024/04/20 10:46:55;;;;;;;;;;;;;;;;;;5461655;26;20008;-62
2024/04/20 10:49:21;;;;;;;;;;;;;;;;;;5463881;26;19927;-62
2024/04/20 10:51:47;;;;;;;;;;;;;;;;;;5466172;26;19935;-61
2024/04/20 10:54:13;;;;;;;;;;;;;;;;;;5468772;26;20669;-62
2024/04/20 10:56:42;;;;;;;;;;;;;;;;;;5464607;26;19943;-63
2024/04/20 10:59:08;;;;;;;;;;;;;;;;;;5463061;26;20257;-61
2024/04/20 11:01:34;;;;;;;;;;;;;;;;;;5466563;26;19928;-62
2024/04/20 11:04:00;;;;;;;;;;;;;;;;;;5466650;26;19935;-61
2024/04/20 11:06:26;;;;;;;;;;;;;;;;;;5436411;26;19928;-62
2024/04/20 11:08:52;;;;;;;;;;;;;;;;;;5465685;26;19956;-64
2024/04/20 11:11:17;;;;;;;;;;;;;;;;;;5463699;26;22428;-62
2024/04/20 11:13:43;;;;;;;;;;;;;;;;;;5478177;26;20362;-64
2024/04/20 11:16:10;;;;;;;;;;;;;;;;;;5470584;26;19938;-63
2024/04/20 11:18:36;;;;;;;;;;;;;;;;;;5481549;26;19928;-62
2024/04/20 11:21:02;;;;;;;;;;;;;;;;;;5461345;26;20283;-64
2024/04/20 11:23:29;;;;;;;;;;;;;;;;;;5464407;26;19964;-64
2024/04/20 11:25:55;;;;;;;;;;;;;;;;;;5475182;26;20429;-64
2024/04/20 11:28:21;;;;;;;;;;;;;;;;;;5485828;26;19936;-64
2024/04/20 11:30:47;;;;;;;;;;;;;;;;;;5468690;26;19928;-64
2024/04/20 11:33:12;;;;;;;;;;;;;;;;;;5470202;26;19928;-65
2024/04/20 11:35:39;;;;;;;;;;;;;;;;;;5481273;26;19941;-62
2024/04/20 11:38:05;;;;;;;;;;;;;;;;;;5484852;26;19935;-64
2024/04/20 11:40:30;;;;;;;;;;;;;;;;;;5478653;26;19928;-64
2024/04/20 11:42:56;;;;;;;;;;;;;;;;;;5459936;26;20439;-64
2024/04/20 11:45:22;;;;;;;;;;;;;;;;;;5483690;26;19996;-63
2024/04/20 11:47:48;;;;;;;;;;;;;;;;;;5497556;26;19928;-63
2024/04/20 11:50:15;;;;;;;;;;;;;;;;;;5470222;26;19940;-63
2024/04/20 11:55:26;;;;;;;;;;;;;;;;;;5479731;26;19935;-62
2024/04/20 11:57:54;;;;;;;;;;;;;;;;;;5478682;26;19928;-64
2024/04/20 12:00:20;;;;;;;;;;;;;;;;;;5468270;26;19929;-62
2024/04/20 12:02:48;;;;;;;;;;;;;;;;;;5451727;26;19934;-63
2024/04/20 12:05:14;;;;;;;;;;;;;;;;;;5480758;26;19996;-61
2024/04/20 12:07:40;;;;;;;;;;;;;;;;;;5467761;26;19936;-63
2024/04/20 12:10:06;;;;;;;;;;;;;;;;;;5483394;26;20374;-62
2024/04/20 12:12:32;;;;;;;;;;;;;;;;;;5478301;26;19929;-64
2024/04/20 12:14:58;;;;;;;;;;;;;;;;;;5471786;26;19956;-64
2024/04/20 12:17:24;;;;;;;;;;;;;;;;;;5472313;26;20382;-64
2024/04/20 12:19:50;;;;;;;;;;;;;;;;;;5476951;26;19934;-63
2024/04/20 12:22:16;;;;;;;;;;;;;;;;;;5478892;26;19976;-64
2024/04/20 12:24:41;;;;;;;;;;;;;;;;;;5468582;26;19935;-62
2024/04/20 12:27:07;;;;;;;;;;;;;;;;;;5485237;26;20390;-64
2024/04/20 12:29:33;;;;;;;;;;;;;;;;;;5478299;26;19935;-63
2024/04/20 12:32:03;;;;;;;;;;;;;;;;;;5479118;26;19928;-61
2024/04/20 12:34:29;;;;;;;;;;;;;;;;;;5472916;26;19928;-64
2024/04/20 12:36:55;;;;;;;;;;;;;;;;;;5477799;26;19943;-64
2024/04/20 12:39:21;;;;;;;;;;;;;;;;;;5490286;26;19973;-64
2024/04/20 12:41:47;;;;;;;;;;;;;;;;;;5482830;26;19928;-64
2024/04/20 12:44:13;;;;;;;;;;;;;;;;;;5481982;26;19939;-64
2024/04/20 12:46:38;;;;;;;;;;;;;;;;;;5485019;26;19932;-64
2024/04/20 12:49:04;;;;;;;;;;;;;;;;;;5492065;26;19932;-61
2024/04/20 12:51:30;;;;;;;;;;;;;;;;;;5473071;26;20266;-62
2024/04/20 12:53:56;;;;;;;;;;;;;;;;;;5472626;26;20369;-64
2024/04/20 12:56:22;;;;;;;;;;;;;;;;;;5474583;26;20648;-63
2024/04/20 12:58:48;;;;;;;;;;;;;;;;;;5475036;26;19931;-64
2024/04/20 13:01:14;;;;;;;;;;;;;;;;;;5477000;26;19928;-63
2024/04/20 13:03:40;;;;;;;;;;;;;;;;;;5470038;26;20392;-64
2024/04/20 13:06:05;;;;;;;;;;;;;;;;;;5480972;26;20042;-64
2024/04/20 13:08:31;;;;;;;;;;;;;;;;;;5476345;26;20279;-62
2024/04/20 13:10:57;;;;;;;;;;;;;;;;;;5465953;26;19928;-62
2024/04/20 13:13:23;;;;;;;;;;;;;;;;;;5476812;26;20630;-64
2024/04/20 13:15:49;;;;;;;;;;;;;;;;;;5438466;26;19929;-64
2024/04/20 13:18:15;;;;;;;;;;;;;;;;;;5472150;26;19928;-61
2024/04/20 13:20:41;;;;;;;;;;;;;;;;;;5475385;26;19936;-62
2024/04/20 13:23:08;;;;;;;;;;;;;;;;;;5478429;26;20402;-63
2024/04/20 13:25:34;;;;;;;;;;;;;;;;;;5462485;26;19932;-64
2024/04/20 13:28:03;;;;;;;;;;;;;;;;;;5477306;26;19932;-65
2024/04/20 13:30:29;;;;;;;;;;;;;;;;;;5474103;26;19940;-63
2024/04/20 13:32:55;;;;;;;;;;;;;;;;;;5469965;26;20032;-63
2024/04/20 13:35:21;;;;;;;;;;;;;;;;;;5480097;26;19935;-61
2024/04/20 13:37:47;;;;;;;;;;;;;;;;;;5472330;26;19932;-63
2024/04/20 13:40:13;;;;;;;;;;;;;;;;;;5468283;26;19935;-61
2024/04/20 13:42:38;;;;;;;;;;;;;;;;;;5467341;26;19936;-63
2024/04/20 13:45:04;;;;;;;;;;;;;;;;;;5466707;26;19931;-63
2024/04/20 13:47:30;;;;;;;;;;;;;;;;;;5474618;26;20453;-62
2024/04/20 13:49:56;;;;;;;;;;;;;;;;;;5476324;26;19928;-63
2024/04/20 13:52:22;;;;;;;;;;;;;;;;;;5473662;26;19936;-63
2024/04/20 13:54:48;;;;;;;;;;;;;;;;;;5462251;26;19943;-64
2024/04/20 13:57:14;;;;;;;;;;;;;;;;;;5470167;26;20362;-62
2024/04/20 13:59:40;;;;;;;;;;;;;;;;;;5463547;26;19928;-62
2024/04/20 14:02:06;;;;;;;;;;;;;;;;;;5476939;26;19928;-62
2024/04/20 14:04:33;;;;;;;;;;;;;;;;;;5450911;26;20277;-63
2024/04/20 14:06:59;;;;;;;;;;;;;;;;;;5471711;26;19928;-63
2024/04/20 14:09:25;;;;;;;;;;;;;;;;;;5473930;26;19954;-63
2024/04/20 14:11:53;;;;;;;;;;;;;;;;;;5473374;26;20228;-63
2024/04/20 14:14:19;;;;;;;;;;;;;;;;;;5452596;26;19928;-62
2024/04/20 14:16:45;;;;;;;;;;;;;;;;;;5468670;26;19935;-62
2024/04/20 14:19:11;;;;;;;;;;;;;;;;;;5466703;26;19936;-61
2024/04/20 14:21:37;;;;;;;;;;;;;;;;;;5480168;26;20274;-62
2024/04/20 14:24:03;;;;;;;;;;;;;;;;;;5470074;26;19936;-62
2024/04/20 14:26:28;;;;;;;;;;;;;;;;;;5478670;26;19928;-62
2024/04/20 14:28:54;;;;;;;;;;;;;;;;;;5462984;26;20342;-62
2024/04/20 14:31:20;;;;;;;;;;;;;;;;;;5477661;26;19928;-62
2024/04/20 14:33:46;;;;;;;;;;;;;;;;;;5488754;26;19935;-62
2024/04/20 14:36:13;;;;;;;;;;;;;;;;;;5484883;26;19927;-60
2024/04/20 14:38:39;;;;;;;;;;;;;;;;;;5470495;26;19946;-62
2024/04/20 14:41:05;;;;;;;;;;;;;;;;;;5461202;26;19929;-62
2024/04/20 14:43:30;;;;;;;;;;;;;;;;;;5475510;26;19947;-62
2024/04/20 14:45:57;;;;;;;;;;;;;;;;;;5474771;26;20358;-62
2024/04/20 14:48:23;;;;;;;;;;;;;;;;;;5480278;26;19961;-61
2024/04/20 14:50:48;;;;;;;;;;;;;;;;;;5483984;26;19928;-60
2024/04/20 14:53:14;;;;;;;;;;;;;;;;;;5479670;26;20039;-60
2024/04/20 14:55:40;;;;;;;;;;;;;;;;;;5482113;26;19928;-62
2024/04/20 14:58:06;;;;;;;;;;;;;;;;;;5480213;26;20449;-62
2024/04/20 15:00:32;;;;;;;;;;;;;;;;;;5439763;26;19933;-58
2024/04/20 15:02:58;;;;;;;;;;;;;;;;;;5469534;26;19996;-59
2024/04/20 15:05:23;;;;;;;;;;;;;;;;;;5461159;26;20029;-61
2024/04/20 15:07:49;;;;;;;;;;;;;;;;;;5481485;26;19936;-60
2024/04/20 15:10:15;;;;;;;;;;;;;;;;;;5469213;26;19928;-59
2024/04/20 15:12:41;;;;;;;;;;;;;;;;;;5473123;26;19956;-59
2024/04/20 15:15:07;;;;;;;;;;;;;;;;;;5468526;26;19959;-59
2024/04/20 15:17:33;;;;;;;;;;;;;;;;;;5475508;26;20001;-59
2024/04/20 15:19:59;;;;;;;;;;;;;;;;;;5471800;26;19928;-57
2024/04/20 15:22:25;;;;;;;;;;;;;;;;;;5479913;26;19935;-60
2024/04/20 15:24:50;;;;;;;;;;;;;;;;;;5473392;26;19928;-60
2024/04/20 15:27:16;;;;;;;;;;;;;;;;;;5482501;26;19932;-60
2024/04/20 15:29:43;;;;;;;;;;;;;;;;;;5483913;26;19935;-60
2024/04/20 15:32:09;;;;;;;;;;;;;;;;;;5473522;26;19928;-60
2024/04/20 15:34:38;;;;;;;;;;;;;;;;;;5478704;26;19932;-60
2024/04/20 15:37:03;;;;;;;;;;;;;;;;;;5471143;26;19932;-57
2024/04/20 15:39:29;;;;;;;;;;;;;;;;;;5470056;26;19932;-58
2024/04/20 15:41:55;;;;;;;;;;;;;;;;;;5460553;26;19997;-59
2024/04/20 15:44:21;;;;;;;;;;;;;;;;;;5478040;26;20377;-61
2024/04/20 15:46:47;;;;;;;;;;;;;;;;;;5474046;26;19935;-60
2024/04/20 15:49:13;;;;;;;;;;;;;;;;;;5470256;26;19946;-60
2024/04/20 15:51:39;;;;;;;;;;;;;;;;;;5467997;26;20308;-60
2024/04/20 15:54:05;;;;;;;;;;;;;;;;;;5477314;26;19928;-60
2024/04/20 15:56:30;;;;;;;;;;;;;;;;;;5469798;26;19997;-60
2024/04/20 15:58:56;;;;;;;;;;;;;;;;;;5470961;26;19932;-61
2024/04/20 16:01:22;;;;;;;;;;;;;;;;;;5473584;26;20362;-56
2024/04/20 16:03:50;;;;;;;;;;;;;;;;;;5467620;26;19928;-59
2024/04/20 16:06:16;;;;;;;;;;;;;;;;;;5479659;26;20067;-58
2024/04/20 16:08:42;;;;;;;;;;;;;;;;;;5471440;26;20441;-60
2024/04/20 16:11:08;;;;;;;;;;;;;;;;;;5474964;26;19972;-60
2024/04/20 16:13:34;;;;;;;;;;;;;;;;;;5478642;26;19996;-60
2024/04/20 16:16:00;;;;;;;;;;;;;;;;;;5476896;26;19928;-60
2024/04/20 16:18:26;;;;;;;;;;;;;;;;;;5477061;26;19928;-61
2024/04/20 16:20:52;;;;;;;;;;;;;;;;;;5480059;26;19944;-59
2024/04/20 16:23:17;;;;;;;;;;;;;;;;;;5469065;26;20548;-60
2024/04/20 16:25:43;;;;;;;;;;;;;;;;;;5477837;26;19928;-59
2024/04/20 16:28:09;;;;;;;;;;;;;;;;;;5484141;26;19928;-61
2024/04/20 16:30:35;;;;;;;;;;;;;;;;;;5474385;26;19943;-61
2024/04/20 16:33:01;;;;;;;;;;;;;;;;;;5477681;26;20347;-61
2024/04/20 16:35:27;;;;;;;;;;;;;;;;;;5469369;26;19929;-61
2024/04/20 16:37:53;;;;;;;;;;;;;;;;;;5471667;26;19935;-59
2024/04/20 16:40:18;;;;;;;;;;;;;;;;;;5475641;26;19935;-57